Zacatecas, México

9:17 PM CDT en Octubre 22, 2014 (GMT -0500)
Gen Leobardo C Ruiz International | Change Station
CLOSE
Current Station
Aeropuerto
Location: Zacatecas Airport,
Altura: 7139 ft
Estaciones meteorológicas cercanas

Alt 7139 ft 22.90 °N, 102.69 °W | Updated 29 minutes ago

Mostly Cloudy
Muy nublado
63 ° F
Sensación térmica 63 ° F
N
12
Viento Variable Viento desde ESE

Hoy
Alta -- | Baja -- ° F
--% Posibilidad de precipitaciones
Ayer
Alta -- | Baja -- ° F
Precip. -- pul
7:49 AM 7:19 PM
Creciente menguante, 1% visible
Presión 30.23 pul
Visibilidad 10.0 Millas
Nubes Muy nublado 4000 ft
Punto de rocío 48 ° F
Humedad 59%
Precipitaciones 0.00 pul
Espesor de la nieve No disponible.
UV 0 de una escala de 12
Polen No disponible.
Calidad del aire No disponible.
Flu Activity No disponible.
METAR MMZC 230148Z 11010KT 10SM BKN040 17/09 A3023 RMK 8/400

More Conditions Fewer Conditions

Presión 30.23 pul
Visibilidad 10.0 Millas
Nubes Muy nublado 4000 ft
Punto de rocío 48 ° F
Humedad 59%
Precipitaciones 0.00 pul
Espesor de la nieve No disponible.
UV 0 de una escala de 12
Polen No disponible.
Calidad del aire No disponible.
Flu Activity No disponible.
METAR MMZC 230148Z 11010KT 10SM BKN040 17/09 A3023 RMK 8/400

More Conditions Fewer Conditions

10-Day Weather Forecast

Almanac

Astronomía

Oct. 22, 2014 Salida Puesta
Hora real 7:49 AM CDT 7:19 PM CDT
Crepúsculo civil 7:27 AM CDT 7:41 PM CDT
Crepúsculo náutico 7:00 AM CDT 8:08 PM CDT
Crepúsculo astronómico 6:34 AM CDT 8:34 PM CDT
Luna 6:42 AM CDT (10/22) 6:41 PM CDT (10/22)
Horas de luz 12h 14m
Horas de luz
11h 29m
Tomorrow will be 1m 13s shorter.
Creciente menguante, 1% of the Moon is Illuminated
Hoy
Creciente menguante
Oct 23
Nueva
Oct 30
Cuarto creciente
Nov 6
Luna llena
Nov 14
Cuarto menguante

Extremos de hoy

Máximos del país Bajas del país

Community

WunderPhotos

Upload Photos

1,764,109 ¡fotos cargadas!

Nearby

Calidad del aire

Not available.

Grosos de nieve

Not available.

Actividad de terremotos

Ciudad Distance Mag. Tiempo y dato
No hay informes recientes de la actividad sísmica.
Magnitud mínima muestra es 2,5.

Temperaturas de aguas costeras

Lugar Temperatura
Sin partes meteorológicos de las estaciones

Estaciones meteorológicas cercanas